createdAt,value
2017-11-23T00:02:29.536Z,99541
2017-11-23T00:07:31.099Z,99511
2017-11-23T00:12:32.698Z,99521
2017-11-23T00:17:35.002Z,99538
2017-11-23T00:22:37.315Z,99515
2017-11-23T00:27:38.891Z,99520
2017-11-23T00:32:40.419Z,99508
2017-11-23T00:37:42.742Z,99502
2017-11-23T00:42:44.293Z,99496
2017-11-23T00:47:45.806Z,99503
2017-11-23T00:52:47.329Z,99505
2017-11-23T00:57:48.817Z,99495
2017-11-23T01:02:50.394Z,99511
2017-11-23T01:07:51.918Z,99496
2017-11-23T01:12:54.210Z,99508
2017-11-23T01:18:02.602Z,99508
2017-11-23T01:23:04.102Z,99520
2017-11-23T01:28:05.645Z,99515
2017-11-23T01:33:07.958Z,99517
2017-11-23T01:38:16.418Z,99538
2017-11-23T01:43:17.911Z,99526
2017-11-23T01:48:19.453Z,99520
2017-11-23T01:53:20.963Z,99506
2017-11-23T01:58:22.481Z,99505
2017-11-23T02:03:23.995Z,99506
2017-11-23T02:08:26.233Z,99501
2017-11-23T02:13:27.803Z,99494
2017-11-23T02:18:29.324Z,99518
2017-11-23T02:23:31.601Z,99524
2017-11-23T02:28:33.818Z,99509
2017-11-23T02:33:35.325Z,99505
2017-11-23T02:38:36.843Z,99514
2017-11-23T02:43:38.354Z,99504
2017-11-23T02:48:39.839Z,99514
2017-11-23T02:53:41.336Z,99506
2017-11-23T02:58:42.874Z,99488
2017-11-23T03:03:44.370Z,99507
2017-11-23T03:08:45.898Z,99505
2017-11-23T03:13:47.414Z,99509
2017-11-23T03:18:48.972Z,99495
2017-11-23T03:23:50.481Z,99486
2017-11-23T03:28:51.985Z,99490
2017-11-23T03:33:54.243Z,99479
2017-11-23T03:38:55.758Z,99479
2017-11-23T03:43:57.374Z,99478
2017-11-23T03:48:58.925Z,99473
2017-11-23T03:54:00.427Z,99466
2017-11-23T03:59:01.974Z,99470
2017-11-23T04:04:03.715Z,99470
2017-11-23T04:09:05.223Z,99475
2017-11-23T04:14:06.770Z,99472
2017-11-23T04:19:08.282Z,99474
2017-11-23T04:24:10.548Z,99472
2017-11-23T04:29:12.051Z,99461
2017-11-23T04:34:13.588Z,99463
2017-11-23T04:39:15.127Z,99453
2017-11-23T04:44:16.638Z,99447
2017-11-23T04:49:18.883Z,99465
2017-11-23T04:54:20.419Z,99451
2017-11-23T04:59:21.918Z,99462
2017-11-23T05:04:23.451Z,99449
2017-11-23T05:09:24.986Z,99444
2017-11-23T05:14:27.307Z,99446
2017-11-23T05:19:28.818Z,99442
2017-11-23T05:24:30.353Z,99454
2017-11-23T05:29:31.939Z,99483
2017-11-23T05:34:33.644Z,99483
2017-11-23T05:39:35.129Z,99487
2017-11-23T05:44:36.655Z,99484
2017-11-23T05:49:38.185Z,99483
2017-11-23T05:54:39.732Z,99478
2017-11-23T05:59:42.155Z,99482
2017-11-23T06:04:43.690Z,99474
2017-11-23T06:09:45.286Z,99469
2017-11-23T06:14:46.835Z,99463
2017-11-23T06:19:48.363Z,99471
2017-11-23T06:24:49.898Z,99468
2017-11-23T06:29:51.431Z,99474
2017-11-23T06:34:52.978Z,99491
2017-11-23T06:39:55.269Z,99482
2017-11-23T06:44:56.752Z,99485
2017-11-23T06:49:58.312Z,99477
2017-11-23T06:55:00.563Z,99488
2017-11-23T07:00:02.001Z,99492
2017-11-23T07:05:03.613Z,99492
2017-11-23T07:10:05.863Z,99489
2017-11-23T07:15:07.382Z,99484
2017-11-23T07:20:08.862Z,99490
2017-11-23T07:25:10.381Z,99510
2017-11-23T07:30:11.854Z,99494
2017-11-23T07:35:14.135Z,99499
2017-11-23T07:40:15.822Z,99509
2017-11-23T07:45:18.095Z,99504
2017-11-23T07:50:19.625Z,99492
2017-11-23T07:55:21.130Z,99496
2017-11-23T08:00:22.635Z,99493
2017-11-23T08:05:24.099Z,99501
2017-11-23T08:10:25.769Z,99506
2017-11-23T08:15:27.271Z,99507
2017-11-23T08:20:28.810Z,99515
2017-11-23T08:25:30.320Z,99514
2017-11-23T08:30:31.777Z,99524
2017-11-23T08:35:33.341Z,99515
2017-11-23T08:40:34.963Z,99533
2017-11-23T08:45:36.483Z,99541
2017-11-23T08:50:38.022Z,99522
2017-11-23T08:55:39.576Z,99519
2017-11-23T09:00:41.089Z,99518
2017-11-23T09:05:44.510Z,99518
2017-11-23T09:10:46.025Z,99513
2017-11-23T09:15:47.522Z,99507
2017-11-23T09:20:49.061Z,99510
2017-11-23T09:25:50.557Z,99518
2017-11-23T09:30:52.158Z,99523
2017-11-23T09:35:54.425Z,99537
2017-11-23T09:40:55.964Z,99536
2017-11-23T09:45:57.507Z,99527
2017-11-23T09:50:59.042Z,99527
2017-11-23T09:56:01.325Z,99513
2017-11-23T10:01:02.848Z,99522
2017-11-23T10:06:04.362Z,99530
2017-11-23T10:11:06.656Z,99523
2017-11-23T10:16:08.942Z,99515
2017-11-23T10:21:11.202Z,99511
2017-11-23T10:26:12.715Z,99506
2017-11-23T10:31:14.318Z,99493
2017-11-23T10:36:15.845Z,99500
2017-11-23T10:41:17.501Z,99484
2017-11-23T10:46:19.891Z,99497
2017-11-23T10:51:21.442Z,99495
2017-11-23T10:56:23.756Z,99498
2017-11-23T11:01:25.274Z,99491
2017-11-23T11:06:26.814Z,99491
2017-11-23T11:11:28.371Z,99487
2017-11-23T11:16:29.918Z,99474
2017-11-23T11:21:32.128Z,99475
2017-11-23T11:26:33.732Z,99479
2017-11-23T11:31:35.248Z,99475
2017-11-23T11:36:36.770Z,99487
2017-11-23T11:41:38.279Z,99490
2017-11-23T11:46:39.817Z,99496
2017-11-23T11:51:42.039Z,99503
2017-11-23T11:56:43.539Z,99512
2017-11-23T12:01:45.072Z,99524
2017-11-23T12:06:46.584Z,99542
2017-11-23T12:11:48.152Z,99539
2017-11-23T12:17:05.519Z,99553
2017-11-23T12:22:26.487Z,99553
2017-11-23T12:27:46.279Z,99554
2017-11-23T12:32:47.788Z,99557
2017-11-23T12:37:50.066Z,99548
2017-11-23T12:42:51.606Z,99537
2017-11-23T12:47:53.115Z,99533
2017-11-23T12:52:55.412Z,99535
2017-11-23T12:57:56.929Z,99540
2017-11-23T13:02:58.464Z,99542
2017-11-23T13:08:00.028Z,99548
2017-11-23T13:13:01.550Z,99542
2017-11-23T13:18:03.098Z,99541
2017-11-23T13:23:04.618Z,99539
2017-11-23T13:28:06.152Z,99545
2017-11-23T13:33:07.713Z,99557
2017-11-23T13:38:09.248Z,99552
2017-11-23T13:43:10.796Z,99549
2017-11-23T13:48:12.329Z,99571
2017-11-23T13:53:14.570Z,99568
2017-11-23T13:58:16.124Z,99572
2017-11-23T14:03:17.672Z,99568
2017-11-23T14:08:19.194Z,99578
2017-11-23T14:13:20.742Z,99582
2017-11-23T14:18:22.270Z,99576
2017-11-23T14:23:23.835Z,99582
2017-11-23T14:28:25.349Z,99581
2017-11-23T14:33:26.898Z,99581
2017-11-23T14:38:28.639Z,99585
2017-11-23T14:43:30.180Z,99588
2017-11-23T14:48:31.750Z,99584
2017-11-23T14:53:33.267Z,99577
2017-11-23T14:58:34.790Z,99579
2017-11-23T15:03:37.062Z,99584
2017-11-23T15:08:38.822Z,99581
2017-11-23T15:13:40.339Z,99593
2017-11-23T15:18:41.970Z,99599
2017-11-23T15:23:43.526Z,99600
2017-11-23T15:28:45.073Z,99599
2017-11-23T15:33:46.584Z,99601
2017-11-23T15:38:48.850Z,99607
2017-11-23T15:43:50.458Z,99609
2017-11-23T15:48:52.041Z,99604
2017-11-23T15:53:53.555Z,99600
2017-11-23T15:58:55.091Z,99621
2017-11-23T16:03:56.660Z,99637
2017-11-23T16:08:58.212Z,99631
2017-11-23T16:13:59.740Z,99629
2017-11-23T16:19:02.055Z,99650
2017-11-23T16:24:03.595Z,99640
2017-11-23T16:29:05.942Z,99647
2017-11-23T16:34:07.483Z,99655
2017-11-23T16:55:19.086Z,99680
2017-11-23T17:16:29.410Z,99689
2017-11-23T17:21:30.966Z,99703
2017-11-23T17:26:32.506Z,99698
2017-11-23T17:31:34.046Z,99706
2017-11-23T17:36:35.615Z,99706
2017-11-23T17:41:37.155Z,99707
2017-11-23T17:46:38.756Z,99703
2017-11-23T17:51:40.295Z,99703
2017-11-23T17:56:42.654Z,99710
2017-11-23T18:01:44.209Z,99714
2017-11-23T18:06:45.771Z,99733
2017-11-23T18:11:47.314Z,99729
2017-11-23T18:16:48.865Z,99744
2017-11-23T18:21:51.173Z,99739
2017-11-23T18:26:52.734Z,99738
2017-11-23T18:31:54.316Z,99740
2017-11-23T18:36:55.910Z,99732
2017-11-23T18:41:57.475Z,99743
2017-11-23T18:47:01.474Z,99734
2017-11-23T18:52:03.261Z,99736
2017-11-23T18:57:05.004Z,99739
2017-11-23T19:02:06.504Z,99739
2017-11-23T19:07:08.038Z,99744
2017-11-23T19:12:09.622Z,99723
2017-11-23T19:17:11.162Z,99722
2017-11-23T19:22:12.696Z,99730
2017-11-23T19:27:14.235Z,99745
2017-11-23T19:32:15.870Z,99757
2017-11-23T19:37:17.412Z,99767
2017-11-23T19:42:19.736Z,99770
2017-11-23T19:47:21.347Z,99775
2017-11-23T19:52:22.883Z,99767
2017-11-23T19:57:24.407Z,99765
2017-11-23T20:02:26.639Z,99773
2017-11-23T20:07:28.189Z,99777
2017-11-23T20:12:29.724Z,99789
2017-11-23T20:17:31.968Z,99786
2017-11-23T20:22:33.520Z,99787
2017-11-23T20:27:35.105Z,99791
2017-11-23T20:32:36.572Z,99798
2017-11-23T20:37:44.921Z,99801
2017-11-23T20:42:46.423Z,99819
2017-11-23T20:47:47.909Z,99818
2017-11-23T20:52:49.483Z,99821
2017-11-23T20:57:51.043Z,99824
2017-11-23T21:02:52.696Z,99817
2017-11-23T21:07:54.395Z,99813
2017-11-23T21:12:55.981Z,99821
2017-11-23T21:17:57.559Z,99821
2017-11-23T21:22:59.070Z,99813
2017-11-23T21:28:00.727Z,99819
2017-11-23T21:33:02.990Z,99826
2017-11-23T21:38:04.527Z,99826
2017-11-23T21:43:06.062Z,99831
2017-11-23T21:48:07.590Z,99839
2017-11-23T21:53:09.141Z,99828
2017-11-23T21:58:10.740Z,99841
2017-11-23T22:03:12.270Z,99845
2017-11-23T22:08:13.854Z,99846
2017-11-23T22:13:15.428Z,99848
2017-11-23T22:18:17.062Z,99852
2017-11-23T22:23:18.621Z,99857
2017-11-23T22:28:20.222Z,99854
2017-11-23T22:33:21.817Z,99853
2017-11-23T22:38:24.058Z,99854
2017-11-23T22:43:25.568Z,99855
2017-11-23T22:48:27.251Z,99856
2017-11-23T22:53:29.530Z,99857
2017-11-23T22:58:31.815Z,99846
2017-11-23T23:03:34.088Z,99852
2017-11-23T23:08:35.598Z,99854
2017-11-23T23:13:37.120Z,99845
2017-11-23T23:18:38.640Z,99854
2017-11-23T23:23:40.155Z,99853
2017-11-23T23:28:41.703Z,99839
2017-11-23T23:33:43.254Z,99834
2017-11-23T23:38:44.768Z,99837
2017-11-23T23:43:47.036Z,99828
2017-11-23T23:48:48.551Z,99827
2017-11-23T23:53:50.110Z,99837
2017-11-23T23:58:51.613Z,99833
